sensor_id;sensor_type;location;lat;lon;timestamp;P1;durP1;ratioP1;P2;durP2;ratioP2
51358;SDS011;37448;51.588;7.248;2023-04-06T00:00:10;13.38;;;7.05;;
51358;SDS011;37448;51.588;7.248;2023-04-06T00:02:11;15.55;;;7.97;;
51358;SDS011;37448;51.588;7.248;2023-04-06T00:04:12;12.68;;;6.88;;
51358;SDS011;37448;51.588;7.248;2023-04-06T00:06:12;16.55;;;8.57;;
51358;SDS011;37448;51.588;7.248;2023-04-06T00:08:12;12.85;;;7.68;;
51358;SDS011;37448;51.588;7.248;2023-04-06T00:10:13;13.57;;;7.93;;
51358;SDS011;37448;51.588;7.248;2023-04-06T00:12:13;14.25;;;7.65;;
51358;SDS011;37448;51.588;7.248;2023-04-06T00:14:14;15.48;;;7.30;;
51358;SDS011;37448;51.588;7.248;2023-04-06T00:16:17;12.40;;;7.70;;
51358;SDS011;37448;51.588;7.248;2023-04-06T00:18:18;13.82;;;8.23;;
51358;SDS011;37448;51.588;7.248;2023-04-06T00:20:19;13.57;;;7.65;;
51358;SDS011;37448;51.588;7.248;2023-04-06T00:22:20;11.80;;;7.32;;
51358;SDS011;37448;51.588;7.248;2023-04-06T00:24:20;14.40;;;8.30;;
51358;SDS011;37448;51.588;7.248;2023-04-06T00:26:21;13.00;;;8.48;;
51358;SDS011;37448;51.588;7.248;2023-04-06T00:28:22;17.25;;;8.50;;
51358;SDS011;37448;51.588;7.248;2023-04-06T00:30:25;13.18;;;7.85;;
51358;SDS011;37448;51.588;7.248;2023-04-06T00:32:26;13.52;;;7.57;;
51358;SDS011;37448;51.588;7.248;2023-04-06T00:34:26;14.82;;;7.78;;
51358;SDS011;37448;51.588;7.248;2023-04-06T00:36:26;15.18;;;7.68;;
51358;SDS011;37448;51.588;7.248;2023-04-06T00:38:27;13.85;;;7.90;;
51358;SDS011;37448;51.588;7.248;2023-04-06T00:40:27;17.88;;;8.02;;
51358;SDS011;37448;51.588;7.248;2023-04-06T00:42:28;13.70;;;7.75;;
51358;SDS011;37448;51.588;7.248;2023-04-06T00:44:29;16.17;;;7.35;;
51358;SDS011;37448;51.588;7.248;2023-04-06T00:46:29;12.43;;;7.70;;
51358;SDS011;37448;51.588;7.248;2023-04-06T00:48:30;13.50;;;7.07;;
51358;SDS011;37448;51.588;7.248;2023-04-06T00:50:31;11.93;;;7.72;;
51358;SDS011;37448;51.588;7.248;2023-04-06T00:52:31;16.55;;;8.45;;
51358;SDS011;37448;51.588;7.248;2023-04-06T00:54:34;13.27;;;8.30;;
51358;SDS011;37448;51.588;7.248;2023-04-06T00:56:35;13.80;;;7.90;;
51358;SDS011;37448;51.588;7.248;2023-04-06T00:58:35;12.65;;;7.93;;
51358;SDS011;37448;51.588;7.248;2023-04-06T01:00:40;14.23;;;8.52;;
51358;SDS011;37448;51.588;7.248;2023-04-06T01:02:42;14.15;;;8.32;;
51358;SDS011;37448;51.588;7.248;2023-04-06T01:04:45;13.63;;;7.90;;
51358;SDS011;37448;51.588;7.248;2023-04-06T01:06:54;15.85;;;8.90;;
51358;SDS011;37448;51.588;7.248;2023-04-06T01:08:58;13.55;;;7.03;;
51358;SDS011;37448;51.588;7.248;2023-04-06T01:11:00;12.32;;;7.90;;
51358;SDS011;37448;51.588;7.248;2023-04-06T01:13:03;12.73;;;7.25;;
51358;SDS011;37448;51.588;7.248;2023-04-06T01:15:19;13.00;;;7.75;;
51358;SDS011;37448;51.588;7.248;2023-04-06T01:17:24;14.77;;;8.02;;
51358;SDS011;37448;51.588;7.248;2023-04-06T01:19:25;16.67;;;8.75;;
51358;SDS011;37448;51.588;7.248;2023-04-06T01:21:27;12.70;;;7.22;;
51358;SDS011;37448;51.588;7.248;2023-04-06T01:23:47;13.27;;;7.60;;
51358;SDS011;37448;51.588;7.248;2023-04-06T01:25:53;13.68;;;8.23;;
51358;SDS011;37448;51.588;7.248;2023-04-06T01:27:54;12.60;;;7.65;;
51358;SDS011;37448;51.588;7.248;2023-04-06T01:30:07;13.93;;;7.90;;
51358;SDS011;37448;51.588;7.248;2023-04-06T01:34:23;12.93;;;7.35;;
51358;SDS011;37448;51.588;7.248;2023-04-06T01:36:23;16.08;;;7.82;;
51358;SDS011;37448;51.588;7.248;2023-04-06T01:38:33;16.25;;;7.38;;
51358;SDS011;37448;51.588;7.248;2023-04-06T01:40:34;12.70;;;7.15;;
51358;SDS011;37448;51.588;7.248;2023-04-06T01:42:34;14.88;;;8.48;;
51358;SDS011;37448;51.588;7.248;2023-04-06T01:44:35;14.10;;;8.05;;
51358;SDS011;37448;51.588;7.248;2023-04-06T01:46:42;12.75;;;7.63;;
51358;SDS011;37448;51.588;7.248;2023-04-06T01:48:44;15.82;;;9.07;;
51358;SDS011;37448;51.588;7.248;2023-04-06T01:51:11;15.85;;;9.10;;
51358;SDS011;37448;51.588;7.248;2023-04-06T01:53:19;16.95;;;8.73;;
51358;SDS011;37448;51.588;7.248;2023-04-06T01:55:21;17.63;;;9.48;;
51358;SDS011;37448;51.588;7.248;2023-04-06T01:57:44;17.17;;;8.50;;
51358;SDS011;37448;51.588;7.248;2023-04-06T01:59:57;20.23;;;10.30;;
51358;SDS011;37448;51.588;7.248;2023-04-06T02:02:15;25.70;;;9.95;;
51358;SDS011;37448;51.588;7.248;2023-04-06T02:04:25;19.33;;;10.23;;
51358;SDS011;37448;51.588;7.248;2023-04-06T02:06:34;18.45;;;9.60;;
51358;SDS011;37448;51.588;7.248;2023-04-06T02:08:36;16.88;;;10.00;;
51358;SDS011;37448;51.588;7.248;2023-04-06T02:10:36;17.13;;;8.55;;
51358;SDS011;37448;51.588;7.248;2023-04-06T02:12:45;14.57;;;8.40;;
51358;SDS011;37448;51.588;7.248;2023-04-06T02:14:52;16.33;;;8.80;;
51358;SDS011;37448;51.588;7.248;2023-04-06T02:16:52;10.90;;;7.85;;
51358;SDS011;37448;51.588;7.248;2023-04-06T02:18:53;17.10;;;8.57;;
51358;SDS011;37448;51.588;7.248;2023-04-06T02:20:53;13.50;;;7.75;;
51358;SDS011;37448;51.588;7.248;2023-04-06T02:22:56;13.77;;;7.93;;
51358;SDS011;37448;51.588;7.248;2023-04-06T02:24:59;16.17;;;8.55;;
51358;SDS011;37448;51.588;7.248;2023-04-06T02:27:00;13.60;;;7.75;;
51358;SDS011;37448;51.588;7.248;2023-04-06T02:29:00;15.15;;;7.55;;
51358;SDS011;37448;51.588;7.248;2023-04-06T02:31:02;14.70;;;8.57;;
51358;SDS011;37448;51.588;7.248;2023-04-06T02:33:03;12.65;;;8.15;;
51358;SDS011;37448;51.588;7.248;2023-04-06T02:35:12;13.60;;;8.30;;
51358;SDS011;37448;51.588;7.248;2023-04-06T02:37:14;12.63;;;7.68;;
51358;SDS011;37448;51.588;7.248;2023-04-06T02:39:14;14.85;;;8.15;;
51358;SDS011;37448;51.588;7.248;2023-04-06T02:41:15;14.98;;;8.05;;
51358;SDS011;37448;51.588;7.248;2023-04-06T02:43:16;15.52;;;8.05;;
51358;SDS011;37448;51.588;7.248;2023-04-06T02:45:17;15.18;;;8.05;;
51358;SDS011;37448;51.588;7.248;2023-04-06T02:47:20;13.00;;;7.65;;
51358;SDS011;37448;51.588;7.248;2023-04-06T02:49:23;16.20;;;7.53;;
51358;SDS011;37448;51.588;7.248;2023-04-06T02:53:33;15.95;;;6.97;;
51358;SDS011;37448;51.588;7.248;2023-04-06T02:55:33;18.27;;;8.88;;
51358;SDS011;37448;51.588;7.248;2023-04-06T02:57:34;14.90;;;7.68;;
51358;SDS011;37448;51.588;7.248;2023-04-06T02:59:35;12.98;;;7.95;;
51358;SDS011;37448;51.588;7.248;2023-04-06T03:01:42;15.52;;;7.55;;
51358;SDS011;37448;51.588;7.248;2023-04-06T03:03:42;13.13;;;7.07;;
51358;SDS011;37448;51.588;7.248;2023-04-06T03:05:49;13.80;;;8.02;;
51358;SDS011;37448;51.588;7.248;2023-04-06T03:07:54;14.27;;;8.05;;
51358;SDS011;37448;51.588;7.248;2023-04-06T03:10:03;14.23;;;8.07;;
51358;SDS011;37448;51.588;7.248;2023-04-06T03:12:05;15.65;;;8.02;;
51358;SDS011;37448;51.588;7.248;2023-04-06T03:14:15;15.32;;;8.32;;
51358;SDS011;37448;51.588;7.248;2023-04-06T03:16:17;19.33;;;7.90;;
51358;SDS011;37448;51.588;7.248;2023-04-06T03:18:21;11.82;;;7.57;;
51358;SDS011;37448;51.588;7.248;2023-04-06T03:20:24;13.48;;;7.95;;
51358;SDS011;37448;51.588;7.248;2023-04-06T03:22:24;19.67;;;8.52;;
51358;SDS011;37448;51.588;7.248;2023-04-06T03:24:24;12.00;;;7.03;;
51358;SDS011;37448;51.588;7.248;2023-04-06T03:26:25;13.68;;;7.93;;
51358;SDS011;37448;51.588;7.248;2023-04-06T03:28:26;12.40;;;7.10;;
51358;SDS011;37448;51.588;7.248;2023-04-06T03:30:30;17.38;;;8.98;;
51358;SDS011;37448;51.588;7.248;2023-04-06T03:32:31;18.67;;;8.48;;
51358;SDS011;37448;51.588;7.248;2023-04-06T03:34:32;17.33;;;7.80;;
51358;SDS011;37448;51.588;7.248;2023-04-06T03:36:33;12.77;;;7.60;;
51358;SDS011;37448;51.588;7.248;2023-04-06T03:38:36;13.70;;;8.00;;
51358;SDS011;37448;51.588;7.248;2023-04-06T03:40:42;11.60;;;7.10;;
51358;SDS011;37448;51.588;7.248;2023-04-06T03:42:42;14.50;;;7.60;;
51358;SDS011;37448;51.588;7.248;2023-04-06T03:46:47;14.02;;;6.97;;
51358;SDS011;37448;51.588;7.248;2023-04-06T03:48:48;11.80;;;7.97;;
51358;SDS011;37448;51.588;7.248;2023-04-06T03:50:50;14.98;;;8.07;;
51358;SDS011;37448;51.588;7.248;2023-04-06T03:52:50;14.45;;;7.70;;
51358;SDS011;37448;51.588;7.248;2023-04-06T03:54:51;14.27;;;7.18;;
51358;SDS011;37448;51.588;7.248;2023-04-06T03:56:51;18.25;;;8.40;;
51358;SDS011;37448;51.588;7.248;2023-04-06T03:58:52;12.15;;;7.63;;
51358;SDS011;37448;51.588;7.248;2023-04-06T04:00:54;16.33;;;7.97;;
51358;SDS011;37448;51.588;7.248;2023-04-06T04:02:55;16.58;;;8.90;;
51358;SDS011;37448;51.588;7.248;2023-04-06T04:04:55;14.57;;;7.28;;
51358;SDS011;37448;51.588;7.248;2023-04-06T04:06:56;16.33;;;7.40;;
51358;SDS011;37448;51.588;7.248;2023-04-06T04:08:56;13.25;;;7.78;;
51358;SDS011;37448;51.588;7.248;2023-04-06T04:10:56;16.98;;;8.90;;
51358;SDS011;37448;51.588;7.248;2023-04-06T04:12:57;15.27;;;7.50;;
51358;SDS011;37448;51.588;7.248;2023-04-06T04:14:57;15.63;;;8.38;;
51358;SDS011;37448;51.588;7.248;2023-04-06T04:16:58;14.55;;;7.47;;
51358;SDS011;37448;51.588;7.248;2023-04-06T04:18:58;15.02;;;7.63;;
51358;SDS011;37448;51.588;7.248;2023-04-06T04:20:58;13.95;;;7.90;;
51358;SDS011;37448;51.588;7.248;2023-04-06T04:22:59;14.63;;;7.13;;
51358;SDS011;37448;51.588;7.248;2023-04-06T04:25:00;14.57;;;7.88;;
51358;SDS011;37448;51.588;7.248;2023-04-06T04:27:01;15.50;;;7.95;;
51358;SDS011;37448;51.588;7.248;2023-04-06T04:29:04;17.58;;;9.52;;
51358;SDS011;37448;51.588;7.248;2023-04-06T04:31:05;13.15;;;8.02;;
51358;SDS011;37448;51.588;7.248;2023-04-06T04:33:08;15.98;;;8.10;;
51358;SDS011;37448;51.588;7.248;2023-04-06T04:35:08;14.77;;;8.38;;
51358;SDS011;37448;51.588;7.248;2023-04-06T04:37:13;11.10;;;7.10;;
51358;SDS011;37448;51.588;7.248;2023-04-06T04:39:24;14.57;;;7.72;;
51358;SDS011;37448;51.588;7.248;2023-04-06T04:41:31;16.40;;;8.30;;
51358;SDS011;37448;51.588;7.248;2023-04-06T04:43:33;15.00;;;7.70;;
51358;SDS011;37448;51.588;7.248;2023-04-06T04:45:35;15.25;;;7.30;;
51358;SDS011;37448;51.588;7.248;2023-04-06T04:47:48;12.30;;;7.57;;
51358;SDS011;37448;51.588;7.248;2023-04-06T04:49:50;13.05;;;7.85;;
51358;SDS011;37448;51.588;7.248;2023-04-06T04:51:55;13.38;;;8.13;;
51358;SDS011;37448;51.588;7.248;2023-04-06T04:54:13;11.68;;;7.03;;
51358;SDS011;37448;51.588;7.248;2023-04-06T04:56:15;17.42;;;8.52;;
51358;SDS011;37448;51.588;7.248;2023-04-06T04:58:17;17.27;;;8.88;;
51358;SDS011;37448;51.588;7.248;2023-04-06T05:00:27;12.48;;;7.50;;
51358;SDS011;37448;51.588;7.248;2023-04-06T05:02:31;15.73;;;8.25;;
51358;SDS011;37448;51.588;7.248;2023-04-06T05:04:44;20.45;;;9.05;;
51358;SDS011;37448;51.588;7.248;2023-04-06T05:06:50;14.90;;;8.32;;
51358;SDS011;37448;51.588;7.248;2023-04-06T05:08:52;14.25;;;8.48;;
51358;SDS011;37448;51.588;7.248;2023-04-06T05:10:53;13.50;;;7.90;;
51358;SDS011;37448;51.588;7.248;2023-04-06T05:12:54;17.20;;;7.30;;
51358;SDS011;37448;51.588;7.248;2023-04-06T05:14:55;11.75;;;7.88;;
51358;SDS011;37448;51.588;7.248;2023-04-06T05:16:56;12.73;;;7.68;;
51358;SDS011;37448;51.588;7.248;2023-04-06T05:18:59;17.05;;;8.98;;
51358;SDS011;37448;51.588;7.248;2023-04-06T05:21:06;13.15;;;7.82;;
51358;SDS011;37448;51.588;7.248;2023-04-06T05:23:16;14.82;;;8.30;;
51358;SDS011;37448;51.588;7.248;2023-04-06T05:25:17;13.75;;;7.32;;
51358;SDS011;37448;51.588;7.248;2023-04-06T05:27:19;17.83;;;8.73;;
51358;SDS011;37448;51.588;7.248;2023-04-06T05:29:20;16.45;;;9.18;;
51358;SDS011;37448;51.588;7.248;2023-04-06T05:31:21;17.58;;;8.07;;
51358;SDS011;37448;51.588;7.248;2023-04-06T05:33:24;16.13;;;7.97;;
51358;SDS011;37448;51.588;7.248;2023-04-06T05:35:38;15.32;;;8.13;;
51358;SDS011;37448;51.588;7.248;2023-04-06T05:37:44;18.58;;;8.57;;
51358;SDS011;37448;51.588;7.248;2023-04-06T05:39:44;17.60;;;8.02;;
51358;SDS011;37448;51.588;7.248;2023-04-06T05:41:45;13.55;;;7.82;;
51358;SDS011;37448;51.588;7.248;2023-04-06T05:43:47;14.60;;;7.90;;
51358;SDS011;37448;51.588;7.248;2023-04-06T05:45:47;16.25;;;8.57;;
51358;SDS011;37448;51.588;7.248;2023-04-06T05:47:47;18.00;;;8.27;;
51358;SDS011;37448;51.588;7.248;2023-04-06T05:50:06;14.35;;;8.40;;
51358;SDS011;37448;51.588;7.248;2023-04-06T05:52:10;17.33;;;8.27;;
51358;SDS011;37448;51.588;7.248;2023-04-06T05:54:11;12.20;;;7.53;;
51358;SDS011;37448;51.588;7.248;2023-04-06T05:56:11;13.45;;;7.68;;
51358;SDS011;37448;51.588;7.248;2023-04-06T05:58:12;17.05;;;8.88;;
51358;SDS011;37448;51.588;7.248;2023-04-06T06:00:13;14.50;;;8.07;;
51358;SDS011;37448;51.588;7.248;2023-04-06T06:02:21;15.98;;;8.05;;
51358;SDS011;37448;51.588;7.248;2023-04-06T06:04:24;15.45;;;9.25;;
51358;SDS011;37448;51.588;7.248;2023-04-06T06:06:27;14.70;;;8.38;;
51358;SDS011;37448;51.588;7.248;2023-04-06T06:08:45;15.02;;;7.65;;
51358;SDS011;37448;51.588;7.248;2023-04-06T06:10:49;12.70;;;7.80;;
51358;SDS011;37448;51.588;7.248;2023-04-06T06:12:52;15.00;;;8.23;;
51358;SDS011;37448;51.588;7.248;2023-04-06T06:14:53;15.13;;;7.63;;
51358;SDS011;37448;51.588;7.248;2023-04-06T06:16:56;12.32;;;6.75;;
51358;SDS011;37448;51.588;7.248;2023-04-06T06:18:57;13.93;;;6.68;;
51358;SDS011;37448;51.588;7.248;2023-04-06T06:20:57;15.77;;;6.97;;
51358;SDS011;37448;51.588;7.248;2023-04-06T06:22:59;12.73;;;6.82;;
51358;SDS011;37448;51.588;7.248;2023-04-06T06:24:59;11.40;;;6.63;;
51358;SDS011;37448;51.588;7.248;2023-04-06T06:27:00;13.63;;;7.07;;
51358;SDS011;37448;51.588;7.248;2023-04-06T06:29:03;13.02;;;8.00;;
51358;SDS011;37448;51.588;7.248;2023-04-06T06:33:07;11.52;;;7.35;;
51358;SDS011;37448;51.588;7.248;2023-04-06T06:35:08;13.75;;;8.15;;
51358;SDS011;37448;51.588;7.248;2023-04-06T06:37:08;10.98;;;6.47;;
51358;SDS011;37448;51.588;7.248;2023-04-06T06:39:11;13.32;;;7.15;;
51358;SDS011;37448;51.588;7.248;2023-04-06T06:41:11;14.73;;;6.90;;
51358;SDS011;37448;51.588;7.248;2023-04-06T06:43:12;9.65;;;5.90;;
51358;SDS011;37448;51.588;7.248;2023-04-06T06:45:45;11.25;;;6.82;;
51358;SDS011;37448;51.588;7.248;2023-04-06T06:47:47;11.05;;;5.80;;
51358;SDS011;37448;51.588;7.248;2023-04-06T06:49:47;16.08;;;6.65;;
51358;SDS011;37448;51.588;7.248;2023-04-06T06:51:48;10.02;;;6.57;;
51358;SDS011;37448;51.588;7.248;2023-04-06T06:53:48;13.80;;;7.72;;
51358;SDS011;37448;51.588;7.248;2023-04-06T06:55:49;12.63;;;6.97;;
51358;SDS011;37448;51.588;7.248;2023-04-06T06:57:49;10.68;;;7.20;;
51358;SDS011;37448;51.588;7.248;2023-04-06T06:59:49;13.00;;;6.63;;
51358;SDS011;37448;51.588;7.248;2023-04-06T07:01:52;16.00;;;6.55;;
51358;SDS011;37448;51.588;7.248;2023-04-06T07:03:53;14.48;;;6.30;;
51358;SDS011;37448;51.588;7.248;2023-04-06T07:05:53;9.25;;;6.20;;
51358;SDS011;37448;51.588;7.248;2023-04-06T07:07:55;9.05;;;6.45;;
51358;SDS011;37448;51.588;7.248;2023-04-06T07:09:55;10.82;;;5.85;;
51358;SDS011;37448;51.588;7.248;2023-04-06T07:11:56;10.30;;;6.00;;
51358;SDS011;37448;51.588;7.248;2023-04-06T07:13:56;11.23;;;6.43;;
51358;SDS011;37448;51.588;7.248;2023-04-06T07:15:57;10.38;;;6.07;;
51358;SDS011;37448;51.588;7.248;2023-04-06T07:17:57;11.25;;;6.07;;
51358;SDS011;37448;51.588;7.248;2023-04-06T07:20:00;10.65;;;6.07;;
51358;SDS011;37448;51.588;7.248;2023-04-06T07:22:00;9.32;;;5.55;;
51358;SDS011;37448;51.588;7.248;2023-04-06T07:24:02;9.10;;;5.15;;
51358;SDS011;37448;51.588;7.248;2023-04-06T07:26:02;9.50;;;5.45;;
51358;SDS011;37448;51.588;7.248;2023-04-06T07:28:04;10.70;;;5.85;;
51358;SDS011;37448;51.588;7.248;2023-04-06T07:30:05;12.82;;;5.45;;
51358;SDS011;37448;51.588;7.248;2023-04-06T07:32:06;9.85;;;5.38;;
51358;SDS011;37448;51.588;7.248;2023-04-06T07:34:07;11.60;;;5.50;;
51358;SDS011;37448;51.588;7.248;2023-04-06T07:36:08;10.27;;;5.72;;
51358;SDS011;37448;51.588;7.248;2023-04-06T07:38:08;7.53;;;5.75;;
51358;SDS011;37448;51.588;7.248;2023-04-06T07:40:09;9.48;;;5.75;;
51358;SDS011;37448;51.588;7.248;2023-04-06T07:42:10;7.38;;;5.15;;
51358;SDS011;37448;51.588;7.248;2023-04-06T07:44:11;8.50;;;5.50;;
51358;SDS011;37448;51.588;7.248;2023-04-06T07:46:12;10.32;;;5.40;;
51358;SDS011;37448;51.588;7.248;2023-04-06T07:48:12;8.85;;;5.43;;
51358;SDS011;37448;51.588;7.248;2023-04-06T07:50:13;8.38;;;5.60;;
51358;SDS011;37448;51.588;7.248;2023-04-06T07:52:15;10.38;;;5.68;;
51358;SDS011;37448;51.588;7.248;2023-04-06T07:54:17;9.38;;;5.72;;
51358;SDS011;37448;51.588;7.248;2023-04-06T07:56:17;7.57;;;5.32;;
51358;SDS011;37448;51.588;7.248;2023-04-06T07:58:18;8.80;;;5.82;;
51358;SDS011;37448;51.588;7.248;2023-04-06T08:00:18;9.32;;;5.65;;
51358;SDS011;37448;51.588;7.248;2023-04-06T08:02:19;7.70;;;5.00;;
51358;SDS011;37448;51.588;7.248;2023-04-06T08:04:20;11.90;;;6.20;;
51358;SDS011;37448;51.588;7.248;2023-04-06T08:06:20;10.45;;;6.18;;
51358;SDS011;37448;51.588;7.248;2023-04-06T08:08:21;9.70;;;6.07;;
51358;SDS011;37448;51.588;7.248;2023-04-06T08:10:22;11.45;;;6.03;;
51358;SDS011;37448;51.588;7.248;2023-04-06T08:12:22;8.32;;;5.55;;
51358;SDS011;37448;51.588;7.248;2023-04-06T08:14:23;8.00;;;6.15;;
51358;SDS011;37448;51.588;7.248;2023-04-06T08:16:23;8.38;;;5.88;;
51358;SDS011;37448;51.588;7.248;2023-04-06T08:18:24;11.65;;;5.97;;
51358;SDS011;37448;51.588;7.248;2023-04-06T08:20:25;10.63;;;6.75;;
51358;SDS011;37448;51.588;7.248;2023-04-06T08:22:25;10.00;;;6.55;;
51358;SDS011;37448;51.588;7.248;2023-04-06T08:24:25;9.50;;;5.97;;
51358;SDS011;37448;51.588;7.248;2023-04-06T08:26:26;13.20;;;7.22;;
51358;SDS011;37448;51.588;7.248;2023-04-06T08:28:27;11.32;;;5.93;;
51358;SDS011;37448;51.588;7.248;2023-04-06T08:30:27;10.40;;;6.40;;
51358;SDS011;37448;51.588;7.248;2023-04-06T08:32:28;12.35;;;6.63;;
51358;SDS011;37448;51.588;7.248;2023-04-06T08:34:29;8.95;;;5.93;;
51358;SDS011;37448;51.588;7.248;2023-04-06T08:36:29;14.15;;;7.20;;
51358;SDS011;37448;51.588;7.248;2023-04-06T08:38:30;15.15;;;7.20;;
51358;SDS011;37448;51.588;7.248;2023-04-06T08:40:35;11.65;;;6.43;;
51358;SDS011;37448;51.588;7.248;2023-04-06T08:42:39;11.10;;;6.78;;
51358;SDS011;37448;51.588;7.248;2023-04-06T08:44:43;11.20;;;6.47;;
51358;SDS011;37448;51.588;7.248;2023-04-06T08:46:45;9.93;;;6.38;;
51358;SDS011;37448;51.588;7.248;2023-04-06T08:48:46;10.70;;;6.50;;
51358;SDS011;37448;51.588;7.248;2023-04-06T08:50:49;12.43;;;7.38;;
51358;SDS011;37448;51.588;7.248;2023-04-06T08:52:50;10.82;;;7.07;;
51358;SDS011;37448;51.588;7.248;2023-04-06T08:54:51;10.73;;;7.45;;
51358;SDS011;37448;51.588;7.248;2023-04-06T08:56:51;13.90;;;8.05;;
51358;SDS011;37448;51.588;7.248;2023-04-06T08:58:54;13.30;;;7.45;;
51358;SDS011;37448;51.588;7.248;2023-04-06T09:00:55;11.80;;;7.78;;
51358;SDS011;37448;51.588;7.248;2023-04-06T09:02:56;11.38;;;6.70;;
51358;SDS011;37448;51.588;7.248;2023-04-06T09:04:57;10.13;;;7.40;;
51358;SDS011;37448;51.588;7.248;2023-04-06T09:06:58;12.48;;;7.22;;
51358;SDS011;37448;51.588;7.248;2023-04-06T09:09:00;12.52;;;7.80;;
51358;SDS011;37448;51.588;7.248;2023-04-06T09:11:01;12.27;;;7.65;;
51358;SDS011;37448;51.588;7.248;2023-04-06T09:13:05;12.85;;;8.50;;
51358;SDS011;37448;51.588;7.248;2023-04-06T09:15:17;11.35;;;7.75;;
51358;SDS011;37448;51.588;7.248;2023-04-06T09:17:20;12.85;;;6.72;;
51358;SDS011;37448;51.588;7.248;2023-04-06T09:19:21;10.85;;;7.13;;
51358;SDS011;37448;51.588;7.248;2023-04-06T09:21:21;9.57;;;7.22;;
51358;SDS011;37448;51.588;7.248;2023-04-06T09:23:22;12.23;;;7.28;;
51358;SDS011;37448;51.588;7.248;2023-04-06T09:25:24;11.65;;;6.78;;
51358;SDS011;37448;51.588;7.248;2023-04-06T09:27:31;11.32;;;6.97;;
51358;SDS011;37448;51.588;7.248;2023-04-06T09:29:32;15.23;;;7.65;;
51358;SDS011;37448;51.588;7.248;2023-04-06T09:31:33;12.35;;;7.78;;
51358;SDS011;37448;51.588;7.248;2023-04-06T09:33:33;14.65;;;8.00;;
51358;SDS011;37448;51.588;7.248;2023-04-06T09:35:37;12.93;;;7.95;;
51358;SDS011;37448;51.588;7.248;2023-04-06T09:37:38;11.25;;;7.18;;
51358;SDS011;37448;51.588;7.248;2023-04-06T09:39:38;13.38;;;8.18;;
51358;SDS011;37448;51.588;7.248;2023-04-06T09:41:39;14.38;;;8.40;;
51358;SDS011;37448;51.588;7.248;2023-04-06T09:43:39;13.15;;;7.78;;
51358;SDS011;37448;51.588;7.248;2023-04-06T09:45:39;14.07;;;7.97;;
51358;SDS011;37448;51.588;7.248;2023-04-06T09:47:42;11.13;;;7.20;;
51358;SDS011;37448;51.588;7.248;2023-04-06T09:49:44;12.18;;;7.30;;
51358;SDS011;37448;51.588;7.248;2023-04-06T09:51:55;15.07;;;7.43;;
51358;SDS011;37448;51.588;7.248;2023-04-06T09:53:59;13.20;;;7.63;;
51358;SDS011;37448;51.588;7.248;2023-04-06T09:56:02;11.77;;;6.95;;
51358;SDS011;37448;51.588;7.248;2023-04-06T09:58:17;13.93;;;7.13;;
51358;SDS011;37448;51.588;7.248;2023-04-06T10:00:26;15.63;;;7.40;;
51358;SDS011;37448;51.588;7.248;2023-04-06T10:04:43;12.65;;;7.90;;
51358;SDS011;37448;51.588;7.248;2023-04-06T10:06:48;13.23;;;7.40;;
51358;SDS011;37448;51.588;7.248;2023-04-06T10:08:52;11.30;;;7.47;;
51358;SDS011;37448;51.588;7.248;2023-04-06T10:10:55;12.88;;;7.60;;
51358;SDS011;37448;51.588;7.248;2023-04-06T10:12:56;15.52;;;8.68;;
51358;SDS011;37448;51.588;7.248;2023-04-06T10:14:57;14.90;;;7.88;;
51358;SDS011;37448;51.588;7.248;2023-04-06T10:16:59;12.20;;;7.60;;
51358;SDS011;37448;51.588;7.248;2023-04-06T10:19:02;14.15;;;8.52;;
51358;SDS011;37448;51.588;7.248;2023-04-06T10:21:08;15.52;;;9.25;;
51358;SDS011;37448;51.588;7.248;2023-04-06T10:23:13;15.23;;;8.68;;
51358;SDS011;37448;51.588;7.248;2023-04-06T10:25:27;14.32;;;8.60;;
51358;SDS011;37448;51.588;7.248;2023-04-06T10:27:29;14.70;;;8.40;;
51358;SDS011;37448;51.588;7.248;2023-04-06T10:29:51;13.82;;;8.80;;
51358;SDS011;37448;51.588;7.248;2023-04-06T10:31:51;13.10;;;8.75;;
51358;SDS011;37448;51.588;7.248;2023-04-06T10:33:55;15.38;;;9.20;;
51358;SDS011;37448;51.588;7.248;2023-04-06T10:35:56;14.80;;;8.82;;
51358;SDS011;37448;51.588;7.248;2023-04-06T10:38:02;17.02;;;9.90;;
51358;SDS011;37448;51.588;7.248;2023-04-06T10:40:04;16.02;;;9.90;;
51358;SDS011;37448;51.588;7.248;2023-04-06T10:42:06;15.48;;;9.20;;
51358;SDS011;37448;51.588;7.248;2023-04-06T10:44:06;17.63;;;9.23;;
51358;SDS011;37448;51.588;7.248;2023-04-06T10:46:07;17.13;;;8.88;;
51358;SDS011;37448;51.588;7.248;2023-04-06T10:48:13;15.32;;;9.65;;
51358;SDS011;37448;51.588;7.248;2023-04-06T10:50:15;16.33;;;8.85;;
51358;SDS011;37448;51.588;7.248;2023-04-06T10:52:16;13.93;;;8.13;;
51358;SDS011;37448;51.588;7.248;2023-04-06T10:54:17;14.85;;;8.85;;
51358;SDS011;37448;51.588;7.248;2023-04-06T10:56:20;14.50;;;7.93;;
51358;SDS011;37448;51.588;7.248;2023-04-06T10:58:26;17.73;;;9.35;;
51358;SDS011;37448;51.588;7.248;2023-04-06T11:00:27;16.67;;;9.23;;
51358;SDS011;37448;51.588;7.248;2023-04-06T11:02:27;15.30;;;8.70;;
51358;SDS011;37448;51.588;7.248;2023-04-06T11:04:28;13.38;;;7.70;;
51358;SDS011;37448;51.588;7.248;2023-04-06T11:06:29;13.43;;;8.48;;
51358;SDS011;37448;51.588;7.248;2023-04-06T11:08:32;12.82;;;7.63;;
51358;SDS011;37448;51.588;7.248;2023-04-06T11:10:33;14.45;;;8.07;;
51358;SDS011;37448;51.588;7.248;2023-04-06T11:12:33;19.05;;;8.32;;
51358;SDS011;37448;51.588;7.248;2023-04-06T11:14:34;15.77;;;7.93;;
51358;SDS011;37448;51.588;7.248;2023-04-06T11:16:34;16.33;;;7.97;;
51358;SDS011;37448;51.588;7.248;2023-04-06T11:18:35;14.18;;;7.57;;
51358;SDS011;37448;51.588;7.248;2023-04-06T11:20:35;13.02;;;6.80;;
51358;SDS011;37448;51.588;7.248;2023-04-06T11:22:36;11.07;;;6.13;;
51358;SDS011;37448;51.588;7.248;2023-04-06T11:24:36;9.80;;;6.25;;
51358;SDS011;37448;51.588;7.248;2023-04-06T11:26:40;10.60;;;6.28;;
51358;SDS011;37448;51.588;7.248;2023-04-06T11:28:43;11.25;;;7.00;;
51358;SDS011;37448;51.588;7.248;2023-04-06T11:30:44;11.90;;;7.13;;
51358;SDS011;37448;51.588;7.248;2023-04-06T11:32:46;17.55;;;9.57;;
51358;SDS011;37448;51.588;7.248;2023-04-06T11:34:47;16.27;;;8.55;;
51358;SDS011;37448;51.588;7.248;2023-04-06T11:36:49;13.77;;;8.38;;
51358;SDS011;37448;51.588;7.248;2023-04-06T11:38:55;15.05;;;8.48;;
51358;SDS011;37448;51.588;7.248;2023-04-06T11:40:56;14.93;;;9.60;;
51358;SDS011;37448;51.588;7.248;2023-04-06T11:42:57;16.33;;;9.02;;
51358;SDS011;37448;51.588;7.248;2023-04-06T11:44:58;18.38;;;11.88;;
51358;SDS011;37448;51.588;7.248;2023-04-06T11:46:59;20.90;;;11.48;;
51358;SDS011;37448;51.588;7.248;2023-04-06T11:49:01;18.85;;;12.07;;
51358;SDS011;37448;51.588;7.248;2023-04-06T11:51:02;19.38;;;11.75;;
51358;SDS011;37448;51.588;7.248;2023-04-06T11:53:05;18.42;;;11.10;;
51358;SDS011;37448;51.588;7.248;2023-04-06T11:55:15;20.25;;;12.52;;
51358;SDS011;37448;51.588;7.248;2023-04-06T11:57:18;20.23;;;12.30;;
51358;SDS011;37448;51.588;7.248;2023-04-06T11:59:20;24.42;;;11.20;;
51358;SDS011;37448;51.588;7.248;2023-04-06T12:01:21;21.48;;;10.70;;
51358;SDS011;37448;51.588;7.248;2023-04-06T12:03:22;18.30;;;11.20;;
51358;SDS011;37448;51.588;7.248;2023-04-06T12:05:22;17.23;;;9.65;;
51358;SDS011;37448;51.588;7.248;2023-04-06T12:07:23;22.30;;;11.40;;
51358;SDS011;37448;51.588;7.248;2023-04-06T12:09:24;18.55;;;10.18;;
51358;SDS011;37448;51.588;7.248;2023-04-06T12:11:25;18.42;;;10.02;;
51358;SDS011;37448;51.588;7.248;2023-04-06T12:13:25;18.38;;;9.10;;
51358;SDS011;37448;51.588;7.248;2023-04-06T12:15:26;23.42;;;11.40;;
51358;SDS011;37448;51.588;7.248;2023-04-06T12:17:26;18.70;;;10.30;;
51358;SDS011;37448;51.588;7.248;2023-04-06T12:19:27;19.23;;;10.10;;